Hauptseite
METAR-TAF:

METAR-TAF

Flughäfen :

Flughafen Eindhoven

Eindhoven, Niederlande

Breite: 51-27N, Länge: 005-25E, Höhe: 23 m

Beobachtung

Neuester Wetterbericht von vor 7 Minuten, um 04:25 UTC
Wind 2 kt aus Südost
Temperatur 1°C
Luftfeuchtigkeit 93%
Luftdruck 1022 hPa
Sichtweite 10 km oder mehr
Geschlossene Wolkendecke in der Höhe von 23000 ft

METAR: EHEH 170425Z AUTO 14002KT 9999 OVC230 01/M00 Q1022 BLU

Zeit: 05:32 (04:32 UTC)

Prognose

Neuester Wetterbericht von vor 6 Stunden und 57 Minuten, um 21:35 UTC
Gültige Prognose vom 17 um 00 UTC bis 18 um 06 UTC
Wind 4 kt aus Süd/Südost
Sichtweite: 7000 m
Wahrscheinlichkeit 40%
vom 17 um 02 UTC bis 17 um 08 UTC
Sichtweite: 3500 m
feuchter Dunst, Flacher Nebel
Zeitweise
vom 17 um 10 UTC bis 17 um 16 UTC
Wind 7 kt aus Süd, Böen bis zu 17 kt

TAF: EHEH 162135Z 1700/1806 15004KT 7000 NSC PROB40 1702/1708 3500 BR MIFG TEMPO 1710/1716 18007G17KT

Wetterbeobachtungen und Prognosen von mehr als 4000 Flughäfen (METAR und TAF Bericht).

Die verfügbaren Stationen werden durch gelbe und rote Markierungen auf der Karte dargestellt.

Führen Sie die Maus auf sie, um den Namen der Station zu sehen.

Darauf klicken, um die Beobachtung von Wetterbeobachtungen und Prognosen zu sehen.

Um die Karte zu ändern : klicken Sie auf den grünen Tasten mit einem schwarzen Kreuz Zum Vergrößern, auf den grünen Button mit einem Gedankenstrich zu verkleinern, oder auf die grünen Pfeile für benachbarte Karten.


METAR-TAF: